Water Valley, Texas
Current Conditions -  °F | °C
As of 6:51 AM on Saturday 22 Nov 2014 (Local Time) from KSJT Reporting Station
Light Rain Light Rain  
Wind Chill: 61°   Ceiling: 2100
Heat Index: 61°   Visibility: 10mi
Dew Point: 58°   Wind: 3mph
Humidity: 90%   Direction: 10°N
Pressure: 29.95"   Gusts: NA
Location:  31.67°N, 100.72°W
Report Text: KSJT 221251Z 01003KT 10SM -RA BKN021 OVC029 16/14 A2995 RMK AO2 RAB51 SLP128 P0000 T01610144
Loading
Personal Weather Stations






























Interactive Weather Map New forecast layout! Learn more

10-Day Weather Forecast

Advertisements
Track Severe Weather on mobile